Melvin, Alabama
Current Conditions -  °F | °C
As of 11:58 AM on Saturday 20 Dec 2014 (Local Time) from KMEI Reporting Station
Overcast Overcast  
Wind Chill: 51°   Ceiling: 2600
Heat Index: 51°   Visibility: 10mi
Dew Point: 41°   Wind: 10mph
Humidity: 68%   Direction: 40°NE
Pressure: 30.19"   Gusts: NA
Location:  31.93°N, 88.46°W
Report Text: KMEI 201758Z 04009KT 10SM OVC026 11/05 A3019 RMK AO2 SLP224 T01060050 10106 20056 58013
Loading
Personal Weather Stations






























Interactive Weather Map New forecast layout! Learn more

10-Day Weather Forecast

Advertisements
Track Severe Weather on mobile